Garden City, New York
Current Conditions -  °F | °C
As of 12:51 PM on Thursday 29 Jan 2015 (Local Time) from KJFK Reporting Station
Broken Clouds Broken Clouds  
Wind Chill: -4°   Ceiling: 25000
Heat Index: -1°   Visibility: 10mi
Dew Point: -11°   Wind: 6mph
Humidity: 49%   Direction: 180°S
Pressure: 30.26"   Gusts: NA
Location:  40.73°N, 73.64°W
Report Text: KJFK 291751Z 18005KT 10SM BKN250 M01/M11 A3026 RMK AO2 SLP245 4/009 933020 T10111106 11006 21083 58025
Loading
Personal Weather Stations






























Interactive Weather Map New forecast layout! Learn more

10-Day Weather Forecast

Advertisements
Track Severe Weather on mobile